sensor_id;sensor_type;location;lat;lon;timestamp;P1;durP1;ratioP1;P2;durP2;ratioP2
53533;SDS011;39421;53.204;6.568;2023-09-07T00:00:29;8.50;;;3.53;;
53533;SDS011;39421;53.204;6.568;2023-09-07T00:02:55;8.73;;;3.70;;
53533;SDS011;39421;53.204;6.568;2023-09-07T00:05:21;9.00;;;3.70;;
53533;SDS011;39421;53.204;6.568;2023-09-07T00:07:48;8.75;;;3.80;;
53533;SDS011;39421;53.204;6.568;2023-09-07T00:10:14;7.57;;;3.65;;
53533;SDS011;39421;53.204;6.568;2023-09-07T00:12:42;7.30;;;3.73;;
53533;SDS011;39421;53.204;6.568;2023-09-07T00:15:09;7.10;;;3.45;;
53533;SDS011;39421;53.204;6.568;2023-09-07T00:17:35;7.70;;;3.90;;
53533;SDS011;39421;53.204;6.568;2023-09-07T00:20:02;8.68;;;3.95;;
53533;SDS011;39421;53.204;6.568;2023-09-07T00:22:39;7.50;;;3.60;;
53533;SDS011;39421;53.204;6.568;2023-09-07T00:25:05;8.45;;;4.00;;
53533;SDS011;39421;53.204;6.568;2023-09-07T00:27:35;7.55;;;3.70;;
53533;SDS011;39421;53.204;6.568;2023-09-07T00:30:02;6.97;;;3.70;;
53533;SDS011;39421;53.204;6.568;2023-09-07T00:32:30;9.80;;;4.00;;
53533;SDS011;39421;53.204;6.568;2023-09-07T00:34:56;7.97;;;3.65;;
53533;SDS011;39421;53.204;6.568;2023-09-07T00:37:22;7.50;;;4.30;;
53533;SDS011;39421;53.204;6.568;2023-09-07T00:39:48;8.98;;;3.58;;
53533;SDS011;39421;53.204;6.568;2023-09-07T00:42:14;8.85;;;4.10;;
53533;SDS011;39421;53.204;6.568;2023-09-07T00:44:42;7.20;;;4.00;;
53533;SDS011;39421;53.204;6.568;2023-09-07T00:47:08;8.50;;;4.15;;
53533;SDS011;39421;53.204;6.568;2023-09-07T00:49:34;9.63;;;3.78;;
53533;SDS011;39421;53.204;6.568;2023-09-07T00:52:01;9.52;;;4.05;;
53533;SDS011;39421;53.204;6.568;2023-09-07T00:54:27;8.38;;;4.10;;
53533;SDS011;39421;53.204;6.568;2023-09-07T00:56:55;8.15;;;4.07;;
53533;SDS011;39421;53.204;6.568;2023-09-07T00:59:21;9.30;;;4.30;;
53533;SDS011;39421;53.204;6.568;2023-09-07T01:01:47;8.43;;;4.35;;
53533;SDS011;39421;53.204;6.568;2023-09-07T01:04:14;7.85;;;3.97;;
53533;SDS011;39421;53.204;6.568;2023-09-07T01:06:51;7.97;;;4.30;;
53533;SDS011;39421;53.204;6.568;2023-09-07T01:09:23;8.77;;;4.20;;
53533;SDS011;39421;53.204;6.568;2023-09-07T01:11:50;7.95;;;4.20;;
53533;SDS011;39421;53.204;6.568;2023-09-07T01:14:18;10.30;;;4.20;;
53533;SDS011;39421;53.204;6.568;2023-09-07T01:16:44;8.18;;;4.40;;
53533;SDS011;39421;53.204;6.568;2023-09-07T01:19:10;9.02;;;4.30;;
53533;SDS011;39421;53.204;6.568;2023-09-07T01:21:37;11.63;;;4.72;;
53533;SDS011;39421;53.204;6.568;2023-09-07T01:24:07;8.48;;;4.00;;
53533;SDS011;39421;53.204;6.568;2023-09-07T01:26:34;8.43;;;4.38;;
53533;SDS011;39421;53.204;6.568;2023-09-07T01:29:04;7.93;;;4.38;;
53533;SDS011;39421;53.204;6.568;2023-09-07T01:31:30;8.57;;;4.10;;
53533;SDS011;39421;53.204;6.568;2023-09-07T01:33:56;10.87;;;4.60;;
53533;SDS011;39421;53.204;6.568;2023-09-07T01:36:22;10.20;;;4.70;;
53533;SDS011;39421;53.204;6.568;2023-09-07T01:38:48;9.70;;;4.80;;
53533;SDS011;39421;53.204;6.568;2023-09-07T01:41:14;8.25;;;4.03;;
53533;SDS011;39421;53.204;6.568;2023-09-07T01:43:41;8.70;;;4.50;;
53533;SDS011;39421;53.204;6.568;2023-09-07T01:46:07;8.40;;;4.32;;
53533;SDS011;39421;53.204;6.568;2023-09-07T01:48:33;8.73;;;4.25;;
53533;SDS011;39421;53.204;6.568;2023-09-07T01:50:59;7.40;;;4.22;;
53533;SDS011;39421;53.204;6.568;2023-09-07T01:53:25;8.75;;;4.25;;
53533;SDS011;39421;53.204;6.568;2023-09-07T01:55:53;8.90;;;4.30;;
53533;SDS011;39421;53.204;6.568;2023-09-07T01:58:20;10.27;;;4.50;;
53533;SDS011;39421;53.204;6.568;2023-09-07T02:00:46;8.48;;;4.20;;
53533;SDS011;39421;53.204;6.568;2023-09-07T02:03:13;8.05;;;4.10;;
53533;SDS011;39421;53.204;6.568;2023-09-07T02:05:39;9.13;;;4.47;;
53533;SDS011;39421;53.204;6.568;2023-09-07T02:08:05;8.93;;;4.47;;
53533;SDS011;39421;53.204;6.568;2023-09-07T02:10:31;9.27;;;4.68;;
53533;SDS011;39421;53.204;6.568;2023-09-07T02:12:57;9.13;;;4.45;;
53533;SDS011;39421;53.204;6.568;2023-09-07T02:15:23;8.05;;;4.35;;
53533;SDS011;39421;53.204;6.568;2023-09-07T02:17:49;9.13;;;4.68;;
53533;SDS011;39421;53.204;6.568;2023-09-07T02:20:17;8.73;;;4.15;;
53533;SDS011;39421;53.204;6.568;2023-09-07T02:22:45;8.52;;;4.50;;
53533;SDS011;39421;53.204;6.568;2023-09-07T02:25:11;8.40;;;4.38;;
53533;SDS011;39421;53.204;6.568;2023-09-07T02:27:37;8.82;;;4.15;;
53533;SDS011;39421;53.204;6.568;2023-09-07T02:30:04;8.07;;;4.50;;
53533;SDS011;39421;53.204;6.568;2023-09-07T02:32:31;8.80;;;3.80;;
53533;SDS011;39421;53.204;6.568;2023-09-07T02:34:57;8.13;;;4.25;;
53533;SDS011;39421;53.204;6.568;2023-09-07T02:37:23;8.05;;;3.90;;
53533;SDS011;39421;53.204;6.568;2023-09-07T02:39:50;8.90;;;3.97;;
53533;SDS011;39421;53.204;6.568;2023-09-07T02:42:16;8.33;;;4.20;;
53533;SDS011;39421;53.204;6.568;2023-09-07T02:44:42;10.20;;;5.07;;
53533;SDS011;39421;53.204;6.568;2023-09-07T02:47:08;8.98;;;4.93;;
53533;SDS011;39421;53.204;6.568;2023-09-07T02:49:34;9.25;;;4.65;;
53533;SDS011;39421;53.204;6.568;2023-09-07T02:52:00;9.60;;;4.78;;
53533;SDS011;39421;53.204;6.568;2023-09-07T02:54:26;8.48;;;4.60;;
53533;SDS011;39421;53.204;6.568;2023-09-07T02:56:52;9.98;;;5.10;;
53533;SDS011;39421;53.204;6.568;2023-09-07T02:59:18;10.53;;;4.60;;
53533;SDS011;39421;53.204;6.568;2023-09-07T03:01:45;10.18;;;4.70;;
53533;SDS011;39421;53.204;6.568;2023-09-07T03:04:11;10.52;;;5.20;;
53533;SDS011;39421;53.204;6.568;2023-09-07T03:06:37;8.50;;;4.88;;
53533;SDS011;39421;53.204;6.568;2023-09-07T03:09:03;8.63;;;4.68;;
53533;SDS011;39421;53.204;6.568;2023-09-07T03:11:34;9.23;;;5.00;;
53533;SDS011;39421;53.204;6.568;2023-09-07T03:14:00;9.88;;;4.95;;
53533;SDS011;39421;53.204;6.568;2023-09-07T03:16:26;9.30;;;4.60;;
53533;SDS011;39421;53.204;6.568;2023-09-07T03:18:52;9.15;;;4.82;;
53533;SDS011;39421;53.204;6.568;2023-09-07T03:21:18;9.38;;;5.20;;
53533;SDS011;39421;53.204;6.568;2023-09-07T03:23:45;8.38;;;4.90;;
53533;SDS011;39421;53.204;6.568;2023-09-07T03:26:11;9.02;;;4.35;;
53533;SDS011;39421;53.204;6.568;2023-09-07T03:28:37;8.15;;;4.53;;
53533;SDS011;39421;53.204;6.568;2023-09-07T03:31:03;8.98;;;4.20;;
53533;SDS011;39421;53.204;6.568;2023-09-07T03:33:29;9.32;;;4.75;;
53533;SDS011;39421;53.204;6.568;2023-09-07T03:35:56;8.75;;;4.95;;
53533;SDS011;39421;53.204;6.568;2023-09-07T03:38:24;7.68;;;4.25;;
53533;SDS011;39421;53.204;6.568;2023-09-07T03:40:50;8.13;;;4.73;;
53533;SDS011;39421;53.204;6.568;2023-09-07T03:43:17;8.30;;;4.20;;
53533;SDS011;39421;53.204;6.568;2023-09-07T03:45:43;8.25;;;4.68;;
53533;SDS011;39421;53.204;6.568;2023-09-07T03:48:09;10.30;;;5.35;;
53533;SDS011;39421;53.204;6.568;2023-09-07T03:50:35;9.50;;;5.57;;
53533;SDS011;39421;53.204;6.568;2023-09-07T03:53:01;9.90;;;5.70;;
53533;SDS011;39421;53.204;6.568;2023-09-07T03:55:28;8.57;;;5.05;;
53533;SDS011;39421;53.204;6.568;2023-09-07T03:57:54;8.48;;;4.80;;
53533;SDS011;39421;53.204;6.568;2023-09-07T04:00:20;8.43;;;4.97;;
53533;SDS011;39421;53.204;6.568;2023-09-07T04:02:46;10.18;;;5.57;;
53533;SDS011;39421;53.204;6.568;2023-09-07T04:05:13;10.10;;;4.97;;
53533;SDS011;39421;53.204;6.568;2023-09-07T04:07:39;9.10;;;4.70;;
53533;SDS011;39421;53.204;6.568;2023-09-07T04:10:05;8.75;;;5.30;;
53533;SDS011;39421;53.204;6.568;2023-09-07T04:12:31;10.18;;;5.80;;
53533;SDS011;39421;53.204;6.568;2023-09-07T04:14:59;9.18;;;5.32;;
53533;SDS011;39421;53.204;6.568;2023-09-07T04:17:25;10.20;;;5.72;;
53533;SDS011;39421;53.204;6.568;2023-09-07T04:19:51;9.98;;;5.72;;
53533;SDS011;39421;53.204;6.568;2023-09-07T04:22:17;9.90;;;5.57;;
53533;SDS011;39421;53.204;6.568;2023-09-07T04:24:46;9.52;;;6.05;;
53533;SDS011;39421;53.204;6.568;2023-09-07T04:27:13;10.03;;;5.40;;
53533;SDS011;39421;53.204;6.568;2023-09-07T04:29:39;10.80;;;6.05;;
53533;SDS011;39421;53.204;6.568;2023-09-07T04:32:05;10.73;;;6.15;;
53533;SDS011;39421;53.204;6.568;2023-09-07T04:34:31;9.57;;;6.00;;
53533;SDS011;39421;53.204;6.568;2023-09-07T04:36:58;11.80;;;5.90;;
53533;SDS011;39421;53.204;6.568;2023-09-07T04:39:24;10.57;;;5.80;;
53533;SDS011;39421;53.204;6.568;2023-09-07T04:41:50;13.68;;;6.28;;
53533;SDS011;39421;53.204;6.568;2023-09-07T04:44:17;11.90;;;6.38;;
53533;SDS011;39421;53.204;6.568;2023-09-07T04:46:44;10.80;;;6.20;;
53533;SDS011;39421;53.204;6.568;2023-09-07T04:49:10;11.07;;;5.93;;
53533;SDS011;39421;53.204;6.568;2023-09-07T04:51:36;11.70;;;6.22;;
53533;SDS011;39421;53.204;6.568;2023-09-07T04:54:02;16.55;;;6.35;;
53533;SDS011;39421;53.204;6.568;2023-09-07T04:56:29;13.40;;;6.37;;
53533;SDS011;39421;53.204;6.568;2023-09-07T04:58:55;10.90;;;6.00;;
53533;SDS011;39421;53.204;6.568;2023-09-07T05:01:21;11.90;;;6.00;;
53533;SDS011;39421;53.204;6.568;2023-09-07T05:03:47;11.60;;;6.22;;
53533;SDS011;39421;53.204;6.568;2023-09-07T05:06:15;10.70;;;6.07;;
53533;SDS011;39421;53.204;6.568;2023-09-07T05:08:41;14.37;;;6.60;;
53533;SDS011;39421;53.204;6.568;2023-09-07T05:11:07;14.48;;;6.00;;
53533;SDS011;39421;53.204;6.568;2023-09-07T05:13:33;11.95;;;6.45;;
53533;SDS011;39421;53.204;6.568;2023-09-07T05:16:00;15.38;;;6.05;;
53533;SDS011;39421;53.204;6.568;2023-09-07T05:18:26;12.55;;;6.32;;
53533;SDS011;39421;53.204;6.568;2023-09-07T05:20:53;11.00;;;5.95;;
53533;SDS011;39421;53.204;6.568;2023-09-07T05:23:19;13.43;;;6.30;;
53533;SDS011;39421;53.204;6.568;2023-09-07T05:25:47;12.25;;;6.05;;
53533;SDS011;39421;53.204;6.568;2023-09-07T05:28:13;12.00;;;6.10;;
53533;SDS011;39421;53.204;6.568;2023-09-07T05:30:40;12.50;;;6.38;;
53533;SDS011;39421;53.204;6.568;2023-09-07T05:33:06;11.70;;;6.13;;
53533;SDS011;39421;53.204;6.568;2023-09-07T05:35:33;12.73;;;6.40;;
53533;SDS011;39421;53.204;6.568;2023-09-07T05:37:59;14.13;;;6.55;;
53533;SDS011;39421;53.204;6.568;2023-09-07T05:40:26;15.27;;;6.75;;
53533;SDS011;39421;53.204;6.568;2023-09-07T05:42:53;12.07;;;6.22;;
53533;SDS011;39421;53.204;6.568;2023-09-07T05:45:19;12.80;;;6.38;;
53533;SDS011;39421;53.204;6.568;2023-09-07T05:47:52;12.13;;;7.03;;
53533;SDS011;39421;53.204;6.568;2023-09-07T05:50:18;13.10;;;6.38;;
53533;SDS011;39421;53.204;6.568;2023-09-07T05:52:45;11.95;;;6.43;;
53533;SDS011;39421;53.204;6.568;2023-09-07T05:55:17;12.40;;;6.50;;
53533;SDS011;39421;53.204;6.568;2023-09-07T05:57:43;11.70;;;6.88;;
53533;SDS011;39421;53.204;6.568;2023-09-07T06:00:10;12.98;;;6.20;;
53533;SDS011;39421;53.204;6.568;2023-09-07T06:02:38;13.18;;;6.72;;
53533;SDS011;39421;53.204;6.568;2023-09-07T06:05:04;14.13;;;6.63;;
53533;SDS011;39421;53.204;6.568;2023-09-07T06:07:31;12.05;;;6.38;;
53533;SDS011;39421;53.204;6.568;2023-09-07T06:09:57;12.32;;;6.47;;
53533;SDS011;39421;53.204;6.568;2023-09-07T06:12:24;12.27;;;6.85;;
53533;SDS011;39421;53.204;6.568;2023-09-07T06:14:50;12.67;;;6.73;;
53533;SDS011;39421;53.204;6.568;2023-09-07T06:17:19;11.93;;;6.30;;
53533;SDS011;39421;53.204;6.568;2023-09-07T06:19:45;11.95;;;6.68;;
53533;SDS011;39421;53.204;6.568;2023-09-07T06:22:11;12.00;;;7.13;;
53533;SDS011;39421;53.204;6.568;2023-09-07T06:24:38;13.45;;;6.57;;
53533;SDS011;39421;53.204;6.568;2023-09-07T06:27:04;11.93;;;6.55;;
53533;SDS011;39421;53.204;6.568;2023-09-07T06:29:34;12.70;;;6.85;;
53533;SDS011;39421;53.204;6.568;2023-09-07T06:32:09;14.27;;;7.68;;
53533;SDS011;39421;53.204;6.568;2023-09-07T06:34:35;14.05;;;6.97;;
53533;SDS011;39421;53.204;6.568;2023-09-07T06:37:01;22.50;;;8.05;;
53533;SDS011;39421;53.204;6.568;2023-09-07T06:39:27;16.63;;;7.50;;
53533;SDS011;39421;53.204;6.568;2023-09-07T06:41:56;12.40;;;7.03;;
53533;SDS011;39421;53.204;6.568;2023-09-07T06:44:33;12.10;;;7.25;;
53533;SDS011;39421;53.204;6.568;2023-09-07T06:47:00;14.35;;;7.35;;
53533;SDS011;39421;53.204;6.568;2023-09-07T06:49:28;12.43;;;7.50;;
53533;SDS011;39421;53.204;6.568;2023-09-07T06:51:57;13.60;;;7.10;;
53533;SDS011;39421;53.204;6.568;2023-09-07T06:54:25;16.13;;;7.38;;
53533;SDS011;39421;53.204;6.568;2023-09-07T06:56:51;14.50;;;7.10;;
53533;SDS011;39421;53.204;6.568;2023-09-07T06:59:25;11.98;;;7.05;;
53533;SDS011;39421;53.204;6.568;2023-09-07T07:01:52;12.07;;;6.90;;
53533;SDS011;39421;53.204;6.568;2023-09-07T07:04:18;10.38;;;6.68;;
53533;SDS011;39421;53.204;6.568;2023-09-07T07:06:45;10.88;;;6.90;;
53533;SDS011;39421;53.204;6.568;2023-09-07T07:09:11;12.20;;;6.88;;
53533;SDS011;39421;53.204;6.568;2023-09-07T07:11:40;14.48;;;7.05;;
53533;SDS011;39421;53.204;6.568;2023-09-07T07:14:10;12.10;;;6.65;;
53533;SDS011;39421;53.204;6.568;2023-09-07T07:16:37;11.93;;;6.38;;
53533;SDS011;39421;53.204;6.568;2023-09-07T07:19:03;11.38;;;7.05;;
53533;SDS011;39421;53.204;6.568;2023-09-07T07:21:31;11.10;;;6.13;;
53533;SDS011;39421;53.204;6.568;2023-09-07T07:23:57;13.65;;;6.45;;
53533;SDS011;39421;53.204;6.568;2023-09-07T07:26:25;11.37;;;6.00;;
53533;SDS011;39421;53.204;6.568;2023-09-07T07:28:57;11.10;;;6.07;;
53533;SDS011;39421;53.204;6.568;2023-09-07T07:31:23;12.32;;;6.50;;
53533;SDS011;39421;53.204;6.568;2023-09-07T07:33:53;11.10;;;5.72;;
53533;SDS011;39421;53.204;6.568;2023-09-07T07:36:20;12.63;;;6.18;;
53533;SDS011;39421;53.204;6.568;2023-09-07T07:38:48;10.67;;;6.20;;
53533;SDS011;39421;53.204;6.568;2023-09-07T07:41:16;12.30;;;6.17;;
53533;SDS011;39421;53.204;6.568;2023-09-07T07:43:48;11.20;;;6.30;;
53533;SDS011;39421;53.204;6.568;2023-09-07T07:46:17;10.47;;;6.53;;
53533;SDS011;39421;53.204;6.568;2023-09-07T07:48:47;12.13;;;6.83;;
53533;SDS011;39421;53.204;6.568;2023-09-07T07:51:14;10.45;;;6.65;;
53533;SDS011;39421;53.204;6.568;2023-09-07T07:53:40;10.20;;;6.40;;
53533;SDS011;39421;53.204;6.568;2023-09-07T07:56:13;10.95;;;6.10;;
53533;SDS011;39421;53.204;6.568;2023-09-07T07:58:40;10.60;;;6.37;;
53533;SDS011;39421;53.204;6.568;2023-09-07T08:01:13;10.10;;;6.20;;
53533;SDS011;39421;53.204;6.568;2023-09-07T08:03:39;11.43;;;6.67;;
53533;SDS011;39421;53.204;6.568;2023-09-07T08:06:08;10.88;;;6.32;;
53533;SDS011;39421;53.204;6.568;2023-09-07T08:08:40;10.07;;;5.47;;
53533;SDS011;39421;53.204;6.568;2023-09-07T08:11:07;10.77;;;6.05;;
53533;SDS011;39421;53.204;6.568;2023-09-07T08:13:35;9.98;;;5.93;;
53533;SDS011;39421;53.204;6.568;2023-09-07T08:16:02;10.90;;;5.97;;
53533;SDS011;39421;53.204;6.568;2023-09-07T08:18:33;9.10;;;5.10;;
53533;SDS011;39421;53.204;6.568;2023-09-07T08:20:59;8.95;;;5.30;;
53533;SDS011;39421;53.204;6.568;2023-09-07T08:23:26;13.73;;;5.45;;
53533;SDS011;39421;53.204;6.568;2023-09-07T08:25:55;12.50;;;5.30;;
53533;SDS011;39421;53.204;6.568;2023-09-07T08:28:21;10.77;;;5.40;;
53533;SDS011;39421;53.204;6.568;2023-09-07T08:30:50;9.17;;;5.23;;
53533;SDS011;39421;53.204;6.568;2023-09-07T08:33:20;9.23;;;5.33;;
53533;SDS011;39421;53.204;6.568;2023-09-07T08:35:54;11.00;;;6.43;;
53533;SDS011;39421;53.204;6.568;2023-09-07T08:38:24;13.85;;;6.30;;
53533;SDS011;39421;53.204;6.568;2023-09-07T08:40:53;9.90;;;6.10;;
53533;SDS011;39421;53.204;6.568;2023-09-07T08:43:27;11.57;;;6.80;;
53533;SDS011;39421;53.204;6.568;2023-09-07T08:46:13;12.98;;;6.50;;
53533;SDS011;39421;53.204;6.568;2023-09-07T08:48:39;11.48;;;5.88;;
53533;SDS011;39421;53.204;6.568;2023-09-07T08:51:11;11.07;;;6.03;;
53533;SDS011;39421;53.204;6.568;2023-09-07T08:53:39;10.10;;;5.80;;
53533;SDS011;39421;53.204;6.568;2023-09-07T08:56:11;10.70;;;5.93;;
53533;SDS011;39421;53.204;6.568;2023-09-07T08:58:39;9.93;;;5.87;;
53533;SDS011;39421;53.204;6.568;2023-09-07T09:01:05;10.93;;;5.72;;
53533;SDS011;39421;53.204;6.568;2023-09-07T09:03:34;9.15;;;4.88;;
53533;SDS011;39421;53.204;6.568;2023-09-07T09:06:04;11.10;;;5.10;;
53533;SDS011;39421;53.204;6.568;2023-09-07T09:11:08;9.45;;;5.35;;
53533;SDS011;39421;53.204;6.568;2023-09-07T09:13:36;8.75;;;4.97;;
53533;SDS011;39421;53.204;6.568;2023-09-07T09:16:06;11.30;;;5.65;;
53533;SDS011;39421;53.204;6.568;2023-09-07T09:18:38;9.70;;;4.40;;
53533;SDS011;39421;53.204;6.568;2023-09-07T09:21:04;11.10;;;4.70;;
53533;SDS011;39421;53.204;6.568;2023-09-07T09:23:32;8.33;;;4.80;;
53533;SDS011;39421;53.204;6.568;2023-09-07T09:26:03;8.85;;;4.38;;
53533;SDS011;39421;53.204;6.568;2023-09-07T09:28:31;8.52;;;4.60;;
53533;SDS011;39421;53.204;6.568;2023-09-07T09:30:58;9.40;;;4.65;;
53533;SDS011;39421;53.204;6.568;2023-09-07T09:33:30;9.85;;;4.82;;
53533;SDS011;39421;53.204;6.568;2023-09-07T09:35:58;8.45;;;4.80;;
53533;SDS011;39421;53.204;6.568;2023-09-07T09:38:24;9.52;;;4.72;;
53533;SDS011;39421;53.204;6.568;2023-09-07T09:40:51;9.38;;;4.63;;
53533;SDS011;39421;53.204;6.568;2023-09-07T09:43:19;9.10;;;4.75;;
53533;SDS011;39421;53.204;6.568;2023-09-07T09:45:46;8.75;;;4.80;;
53533;SDS011;39421;53.204;6.568;2023-09-07T09:48:13;9.40;;;5.07;;
53533;SDS011;39421;53.204;6.568;2023-09-07T09:50:40;9.20;;;4.68;;
53533;SDS011;39421;53.204;6.568;2023-09-07T09:53:07;9.10;;;4.90;;
53533;SDS011;39421;53.204;6.568;2023-09-07T09:55:34;9.30;;;4.90;;
53533;SDS011;39421;53.204;6.568;2023-09-07T09:58:00;9.50;;;5.25;;
53533;SDS011;39421;53.204;6.568;2023-09-07T10:00:29;9.00;;;5.03;;
53533;SDS011;39421;53.204;6.568;2023-09-07T10:03:00;8.63;;;4.82;;
53533;SDS011;39421;53.204;6.568;2023-09-07T10:05:33;10.05;;;5.05;;
53533;SDS011;39421;53.204;6.568;2023-09-07T10:08:03;10.53;;;4.97;;
53533;SDS011;39421;53.204;6.568;2023-09-07T10:10:36;8.98;;;4.60;;
53533;SDS011;39421;53.204;6.568;2023-09-07T10:13:04;8.70;;;4.50;;
53533;SDS011;39421;53.204;6.568;2023-09-07T10:15:30;14.02;;;4.68;;
53533;SDS011;39421;53.204;6.568;2023-09-07T10:20:46;14.75;;;4.90;;
53533;SDS011;39421;53.204;6.568;2023-09-07T10:23:14;9.90;;;4.93;;
53533;SDS011;39421;53.204;6.568;2023-09-07T10:25:40;8.10;;;4.43;;
53533;SDS011;39421;53.204;6.568;2023-09-07T10:28:17;9.45;;;4.57;;
53533;SDS011;39421;53.204;6.568;2023-09-07T10:30:43;8.32;;;4.40;;
53533;SDS011;39421;53.204;6.568;2023-09-07T10:33:22;11.23;;;4.68;;
53533;SDS011;39421;53.204;6.568;2023-09-07T10:35:50;8.45;;;4.63;;
53533;SDS011;39421;53.204;6.568;2023-09-07T10:38:18;10.07;;;4.75;;
53533;SDS011;39421;53.204;6.568;2023-09-07T10:40:44;9.35;;;4.57;;
53533;SDS011;39421;53.204;6.568;2023-09-07T10:43:11;9.02;;;4.78;;
53533;SDS011;39421;53.204;6.568;2023-09-07T10:45:37;9.33;;;4.70;;
53533;SDS011;39421;53.204;6.568;2023-09-07T10:48:05;8.53;;;4.70;;
53533;SDS011;39421;53.204;6.568;2023-09-07T10:50:42;8.52;;;4.68;;
53533;SDS011;39421;53.204;6.568;2023-09-07T10:53:08;9.20;;;4.55;;
53533;SDS011;39421;53.204;6.568;2023-09-07T10:55:38;8.83;;;4.73;;
53533;SDS011;39421;53.204;6.568;2023-09-07T10:58:08;9.48;;;4.50;;
53533;SDS011;39421;53.204;6.568;2023-09-07T11:00:36;8.50;;;4.75;;
53533;SDS011;39421;53.204;6.568;2023-09-07T11:03:07;8.77;;;4.47;;
53533;SDS011;39421;53.204;6.568;2023-09-07T11:05:35;9.85;;;4.70;;
53533;SDS011;39421;53.204;6.568;2023-09-07T11:08:03;7.78;;;4.55;;
53533;SDS011;39421;53.204;6.568;2023-09-07T11:10:32;9.65;;;4.30;;
53533;SDS011;39421;53.204;6.568;2023-09-07T11:13:03;9.27;;;4.40;;
53533;SDS011;39421;53.204;6.568;2023-09-07T11:15:30;9.13;;;4.40;;
53533;SDS011;39421;53.204;6.568;2023-09-07T11:17:57;8.10;;;3.97;;
53533;SDS011;39421;53.204;6.568;2023-09-07T11:20:28;8.15;;;4.22;;
53533;SDS011;39421;53.204;6.568;2023-09-07T11:22:55;10.38;;;4.40;;
53533;SDS011;39421;53.204;6.568;2023-09-07T11:25:23;9.18;;;4.13;;
53533;SDS011;39421;53.204;6.568;2023-09-07T11:27:50;7.85;;;3.95;;
53533;SDS011;39421;53.204;6.568;2023-09-07T11:30:20;8.95;;;4.18;;
53533;SDS011;39421;53.204;6.568;2023-09-07T11:32:46;8.55;;;4.20;;
53533;SDS011;39421;53.204;6.568;2023-09-07T11:35:12;10.65;;;4.43;;
53533;SDS011;39421;53.204;6.568;2023-09-07T11:37:51;11.98;;;4.63;;
53533;SDS011;39421;53.204;6.568;2023-09-07T11:40:18;9.70;;;4.20;;
53533;SDS011;39421;53.204;6.568;2023-09-07T11:42:44;9.77;;;4.18;;
53533;SDS011;39421;53.204;6.568;2023-09-07T11:45:10;8.35;;;3.80;;
53533;SDS011;39421;53.204;6.568;2023-09-07T11:47:38;9.70;;;4.13;;
53533;SDS011;39421;53.204;6.568;2023-09-07T11:50:06;9.43;;;4.30;;
53533;SDS011;39421;53.204;6.568;2023-09-07T11:52:32;9.82;;;4.25;;
53533;SDS011;39421;53.204;6.568;2023-09-07T11:54:58;15.50;;;5.15;;
53533;SDS011;39421;53.204;6.568;2023-09-07T11:57:26;7.25;;;3.45;;
53533;SDS011;39421;53.204;6.568;2023-09-07T11:59:58;9.00;;;4.13;;
53533;SDS011;39421;53.204;6.568;2023-09-07T12:02:24;7.20;;;3.83;;
53533;SDS011;39421;53.204;6.568;2023-09-07T12:04:51;7.97;;;3.90;;
53533;SDS011;39421;53.204;6.568;2023-09-07T12:07:17;9.20;;;4.15;;
53533;SDS011;39421;53.204;6.568;2023-09-07T12:09:43;10.07;;;4.03;;
53533;SDS011;39421;53.204;6.568;2023-09-07T12:12:10;9.20;;;4.47;;
53533;SDS011;39421;53.204;6.568;2023-09-07T12:14:37;8.50;;;4.05;;
53533;SDS011;39421;53.204;6.568;2023-09-07T12:17:03;7.28;;;4.10;;
53533;SDS011;39421;53.204;6.568;2023-09-07T12:19:30;10.03;;;4.33;;
53533;SDS011;39421;53.204;6.568;2023-09-07T12:21:56;8.18;;;4.20;;
53533;SDS011;39421;53.204;6.568;2023-09-07T12:24:23;9.45;;;4.05;;
53533;SDS011;39421;53.204;6.568;2023-09-07T12:26:52;10.73;;;4.28;;
53533;SDS011;39421;53.204;6.568;2023-09-07T12:29:19;8.48;;;4.25;;
53533;SDS011;39421;53.204;6.568;2023-09-07T12:31:48;7.75;;;4.00;;
53533;SDS011;39421;53.204;6.568;2023-09-07T12:34:14;7.63;;;4.20;;
53533;SDS011;39421;53.204;6.568;2023-09-07T12:36:44;8.13;;;4.18;;
53533;SDS011;39421;53.204;6.568;2023-09-07T12:39:10;9.93;;;4.22;;
53533;SDS011;39421;53.204;6.568;2023-09-07T12:41:39;8.70;;;4.53;;
53533;SDS011;39421;53.204;6.568;2023-09-07T12:44:05;8.80;;;4.40;;
53533;SDS011;39421;53.204;6.568;2023-09-07T12:46:33;7.07;;;4.20;;
53533;SDS011;39421;53.204;6.568;2023-09-07T12:49:01;8.10;;;4.25;;
53533;SDS011;39421;53.204;6.568;2023-09-07T12:51:27;8.50;;;4.43;;
53533;SDS011;39421;53.204;6.568;2023-09-07T12:53:53;8.02;;;4.10;;
53533;SDS011;39421;53.204;6.568;2023-09-07T12:56:19;8.43;;;4.55;;
53533;SDS011;39421;53.204;6.568;2023-09-07T12:58:46;8.73;;;4.20;;
53533;SDS011;39421;53.204;6.568;2023-09-07T13:01:15;8.13;;;4.30;;
53533;SDS011;39421;53.204;6.568;2023-09-07T13:03:43;11.57;;;4.57;;
53533;SDS011;39421;53.204;6.568;2023-09-07T13:06:09;8.93;;;4.43;;
53533;SDS011;39421;53.204;6.568;2023-09-07T13:08:46;9.07;;;4.57;;
53533;SDS011;39421;53.204;6.568;2023-09-07T13:11:12;8.10;;;4.47;;
53533;SDS011;39421;53.204;6.568;2023-09-07T13:13:38;8.40;;;4.18;;
53533;SDS011;39421;53.204;6.568;2023-09-07T13:16:05;9.95;;;4.57;;
53533;SDS011;39421;53.204;6.568;2023-09-07T13:18:31;8.68;;;4.40;;
53533;SDS011;39421;53.204;6.568;2023-09-07T13:20:57;8.23;;;4.45;;
53533;SDS011;39421;53.204;6.568;2023-09-07T13:23:28;8.82;;;4.47;;
53533;SDS011;39421;53.204;6.568;2023-09-07T13:25:57;8.48;;;4.43;;
53533;SDS011;39421;53.204;6.568;2023-09-07T13:28:31;7.63;;;4.10;;
53533;SDS011;39421;53.204;6.568;2023-09-07T13:30:57;8.45;;;4.50;;
53533;SDS011;39421;53.204;6.568;2023-09-07T13:33:23;9.15;;;4.10;;
53533;SDS011;39421;53.204;6.568;2023-09-07T13:35:50;8.00;;;4.05;;
53533;SDS011;39421;53.204;6.568;2023-09-07T13:38:16;8.30;;;4.32;;
53533;SDS011;39421;53.204;6.568;2023-09-07T13:40:42;8.77;;;4.05;;
53533;SDS011;39421;53.204;6.568;2023-09-07T13:43:09;18.30;;;5.15;;
53533;SDS011;39421;53.204;6.568;2023-09-07T13:45:35;7.47;;;3.80;;
53533;SDS011;39421;53.204;6.568;2023-09-07T13:48:01;8.20;;;4.38;;
53533;SDS011;39421;53.204;6.568;2023-09-07T13:50:30;7.55;;;3.67;;
53533;SDS011;39421;53.204;6.568;2023-09-07T13:52:59;10.93;;;4.03;;
53533;SDS011;39421;53.204;6.568;2023-09-07T13:55:25;8.80;;;4.28;;
53533;SDS011;39421;53.204;6.568;2023-09-07T13:57:51;7.75;;;4.22;;
53533;SDS011;39421;53.204;6.568;2023-09-07T14:00:17;9.32;;;4.00;;
53533;SDS011;39421;53.204;6.568;2023-09-07T14:02:43;8.05;;;3.83;;
53533;SDS011;39421;53.204;6.568;2023-09-07T14:05:11;8.13;;;4.15;;
53533;SDS011;39421;53.204;6.568;2023-09-07T14:07:37;7.85;;;4.10;;
53533;SDS011;39421;53.204;6.568;2023-09-07T14:10:04;8.30;;;4.10;;
53533;SDS011;39421;53.204;6.568;2023-09-07T14:12:30;10.40;;;4.10;;
53533;SDS011;39421;53.204;6.568;2023-09-07T14:14:56;8.23;;;4.25;;
53533;SDS011;39421;53.204;6.568;2023-09-07T14:17:22;7.90;;;4.15;;
53533;SDS011;39421;53.204;6.568;2023-09-07T14:19:48;7.85;;;3.75;;
53533;SDS011;39421;53.204;6.568;2023-09-07T14:22:20;8.27;;;3.83;;
53533;SDS011;39421;53.204;6.568;2023-09-07T14:24:48;8.85;;;3.80;;
53533;SDS011;39421;53.204;6.568;2023-09-07T14:27:14;8.13;;;3.90;;
53533;SDS011;39421;53.204;6.568;2023-09-07T14:29:40;8.35;;;3.78;;
53533;SDS011;39421;53.204;6.568;2023-09-07T14:32:06;7.85;;;3.97;;
53533;SDS011;39421;53.204;6.568;2023-09-07T14:34:36;8.50;;;4.32;;
53533;SDS011;39421;53.204;6.568;2023-09-07T14:37:03;7.90;;;4.07;;
53533;SDS011;39421;53.204;6.568;2023-09-07T14:39:29;7.30;;;3.80;;
53533;SDS011;39421;53.204;6.568;2023-09-07T14:41:55;8.38;;;3.92;;
53533;SDS011;39421;53.204;6.568;2023-09-07T14:44:23;8.57;;;3.97;;
53533;SDS011;39421;53.204;6.568;2023-09-07T14:46:49;7.67;;;4.03;;
53533;SDS011;39421;53.204;6.568;2023-09-07T14:49:16;7.05;;;4.18;;